Union Grove, Louisiana
Current Conditions -  °F | °C
As of 1:15 AM on Thursday 18 Dec 2014 (Local Time) from KIER Reporting Station
Overcast Overcast  
Wind Chill: 47°   Ceiling: 3200
Heat Index: 49°   Visibility: 10mi
Dew Point: 43°   Wind: 5mph
Humidity: 79%   Direction: 10°N
Pressure: 30.19"   Gusts: NA
Location:  31.6668°N, 92.8023°W
Report Text: KIER 180715Z AUTO 01004KT 10SM OVC032 10/06 A3019 RMK AO2 T00950060
Loading
Personal Weather Stations






























Interactive Weather Map New forecast layout! Learn more

10-Day Weather Forecast

Advertisements
Track Severe Weather on mobile